Time;durP1;ratioP1;P1;durP2;ratioP2;P2;SDS_P1;SDS_P2;PMS_P1;PMS_P2;Temp;Humidity;BMP_temperature;BMP_pressure;BME280_temperature;BME280_humidity;BME280_pressure;Samples;Min_cycle;Max_cycle;Signal;HPM_P1;HPM_P2
2022/09/14 00:05:15;;;;;;;2.65;1.67;;;;;;;19.28;100.00;96951.84;18281377;32;20084;-62
2022/09/14 00:15:17;;;;;;;2.65;2.15;;;;;;;19.22;100.00;96965.00;18402199;32;20383;-61
2022/09/14 00:25:20;;;;;;;1.92;1.65;;;;;;;19.18;100.00;96958.59;18430800;32;20106;-62
2022/09/14 00:35:22;;;;;;;1.85;1.50;;;;;;;19.16;100.00;96954.63;18430235;32;20080;-62
2022/09/14 00:45:25;;;;;;;1.90;1.52;;;;;;;19.13;100.00;96958.88;18429983;32;20054;-61
2022/09/14 00:55:27;;;;;;;1.90;1.70;;;;;;;19.07;100.00;96941.03;18441740;32;20129;-62
2022/09/14 01:05:54;;;;;;;3.27;2.03;;;;;;;19.05;100.00;96962.50;18505615;32;20488;-62
2022/09/14 01:16:08;;;;;;;1.80;1.30;;;;;;;19.04;100.00;96952.69;18505180;32;20100;-61
2022/09/14 01:26:41;;;;;;;2.25;1.52;;;;;;;18.98;100.00;96948.56;18490714;32;20108;-61
2022/09/14 01:36:50;;;;;;;1.50;1.40;;;;;;;18.92;100.00;96926.88;18504157;32;20071;-62
2022/09/14 01:46:56;;;;;;;2.65;1.60;;;;;;;18.84;100.00;96937.94;18503739;32;20083;-62
2022/09/14 01:57:16;;;;;;;2.10;1.42;;;;;;;18.75;100.00;96947.06;18488067;32;20050;-61
2022/09/14 02:07:18;;;;;;;3.12;1.90;;;;;;;18.64;100.00;96934.97;18287669;32;20599;-62
2022/09/14 02:17:21;;;;;;;5.10;2.00;;;;;;;18.58;100.00;96937.13;18274626;32;20115;-61
2022/09/14 02:27:24;;;;;;;2.40;1.67;;;;;;;18.54;100.00;96952.66;18299185;32;20074;-62
2022/09/14 02:37:39;;;;;;;1.80;1.60;;;;;;;18.51;100.00;96950.56;18457806;32;20566;-62
2022/09/14 02:47:41;;;;;;;2.92;2.00;;;;;;;18.46;100.00;96948.06;18492934;32;20068;-62
2022/09/14 02:58:10;;;;;;;2.33;1.67;;;;;;;18.41;100.00;96940.84;18498261;32;20469;-62
2022/09/14 03:08:13;;;;;;;2.20;1.80;;;;;;;18.36;100.00;96949.28;18498328;32;20049;-61
2022/09/14 03:18:15;;;;;;;2.97;2.03;;;;;;;18.33;100.00;96938.22;18497098;32;20105;-61
2022/09/14 03:28:17;;;;;;;2.10;1.77;;;;;;;18.28;100.00;96928.28;18482986;32;20045;-61
2022/09/14 03:38:20;;;;;;;2.40;1.83;;;;;;;18.23;100.00;96936.72;18496779;32;20087;-61
2022/09/14 03:48:22;;;;;;;2.67;1.85;;;;;;;18.18;100.00;96934.97;18496168;32;20411;-62
2022/09/14 03:58:25;;;;;;;2.03;1.52;;;;;;;18.15;100.00;96916.53;18495415;32;20056;-61
2022/09/14 04:08:28;;;;;;;6.27;1.90;;;;;;;18.02;100.00;96882.06;18481268;32;20041;-61
2022/09/14 04:18:31;;;;;;;4.15;1.85;;;;;;;17.90;100.00;96878.13;18494922;32;20239;-61
2022/09/14 04:28:33;;;;;;;2.23;1.80;;;;;;;17.72;100.00;96895.81;18356786;32;20065;-61
2022/09/14 04:38:37;;;;;;;3.10;1.80;;;;;;;17.62;100.00;96886.91;18368045;32;20121;-61
2022/09/14 04:48:40;;;;;;;3.92;2.47;;;;;;;17.58;100.00;96901.56;18355725;32;20116;-61
2022/09/14 04:58:46;;;;;;;2.90;2.17;;;;;;;17.54;100.00;96882.34;18365821;32;20057;-62
2022/09/14 05:08:53;;;;;;;3.72;2.20;;;;;;;17.50;100.00;96875.94;18440423;32;20369;-61
2022/09/14 05:19:00;;;;;;;3.30;2.23;;;;;;;17.45;100.00;96879.66;18366734;32;20123;-61
2022/09/14 05:29:03;;;;;;;2.35;2.15;;;;;;;17.43;100.00;96856.53;18366621;32;20069;-61
2022/09/14 05:39:07;;;;;;;3.70;2.50;;;;;;;17.42;100.00;96863.94;18352795;32;20132;-61
2022/09/14 05:49:09;;;;;;;2.55;2.30;;;;;;;17.49;100.00;96862.63;18410693;32;20389;-62
2022/09/14 05:59:12;;;;;;;4.93;2.70;;;;;;;17.54;100.00;96867.84;18472291;32;20048;-61
2022/09/14 06:09:15;;;;;;;4.27;2.37;;;;;;;17.56;100.00;96857.41;18501788;32;20065;-61
2022/09/14 06:19:26;;;;;;;2.40;2.10;;;;;;;17.62;100.00;96851.38;18487665;32;20115;-61
2022/09/14 06:29:29;;;;;;;2.85;2.28;;;;;;;17.76;100.00;96863.94;18486621;32;20083;-61
2022/09/14 06:39:33;;;;;;;7.27;2.93;;;;;;;17.99;100.00;96910.09;18486106;32;20053;-62
2022/09/14 06:49:41;;;;;;;2.60;2.17;;;;;;;18.12;100.00;96911.72;18499188;32;20056;-61
2022/09/14 06:59:49;;;;;;;4.15;2.22;;;;;;;18.50;100.00;96929.81;18497584;32;20109;-61
2022/09/14 07:09:52;;;;;;;6.37;3.42;;;;;;;19.05;100.00;96932.34;18498120;32;20097;-61
2022/09/14 07:19:56;;;;;;;4.33;2.87;;;;;;;19.62;100.00;96928.63;18490823;32;20057;-61
2022/09/14 07:30:01;;;;;;;4.65;2.42;;;;;;;19.96;100.00;96951.13;18497086;32;20057;-62
2022/09/14 07:40:27;;;;;;;2.70;2.25;;;;;;;20.05;100.00;96950.19;18482733;32;20064;-62
2022/09/14 07:51:10;;;;;;;;;;;;;;;;;;;;;
2022/09/14 08:01:37;;;;;;;6.18;3.85;;;;;;;20.65;100.00;96948.25;18495330;32;20108;-62
2022/09/14 08:11:41;;;;;;;5.25;3.50;;;;;;;21.11;100.00;96972.53;18497648;32;20053;-61
2022/09/14 08:21:45;;;;;;;4.75;3.00;;;;;;;21.74;100.00;96992.06;18502589;32;20057;-61
2022/09/14 08:31:51;;;;;;;3.83;2.62;;;;;;;22.14;99.68;96993.66;18502440;32;20373;-61
2022/09/14 08:42:12;;;;;;;3.47;2.70;;;;;;;22.36;99.49;96994.88;18516046;32;20053;-62
2022/09/14 08:52:31;;;;;;;4.85;2.75;;;;;;;22.25;100.00;97000.16;18515863;32;20114;-61
2022/09/14 09:02:42;;;;;;;4.05;2.45;;;;;;;21.80;100.00;97007.09;18449536;32;20053;-61
2022/09/14 09:12:52;;;;;;;3.85;2.95;;;;;;;21.63;100.00;96980.81;18450609;32;20460;-61
2022/09/14 09:23:12;;;;;;;4.22;2.80;;;;;;;21.81;100.00;96959.19;18441394;32;20083;-61
2022/09/14 09:33:22;;;;;;;5.57;3.60;;;;;;;22.04;100.00;96944.69;18439657;32;20471;-62
2022/09/14 09:43:26;;;;;;;6.47;3.67;;;;;;;22.71;100.00;96938.84;18439155;32;20460;-61
2022/09/14 09:54:07;;;;;;;5.82;3.10;;;;;;;23.04;100.00;96950.38;18426911;32;20367;-61
2022/09/14 10:04:20;;;;;;;8.63;3.50;;;;;;;23.42;100.00;96932.88;18364281;32;20427;-62
2022/09/14 10:14:31;;;;;;;7.55;3.85;;;;;;;23.20;100.00;96925.44;18363960;32;20066;-61
2022/09/14 10:24:38;;;;;;;5.87;2.70;;;;;;;23.13;100.00;96913.16;18351191;32;20077;-62
2022/09/14 10:34:41;;;;;;;5.28;2.90;;;;;;;23.64;100.00;96888.97;18412171;32;20373;-62
2022/09/14 10:45:19;;;;;;;5.68;2.90;;;;;;;23.93;99.43;96876.34;18435433;32;20095;-62
2022/09/14 10:55:48;;;;;;;6.12;2.75;;;;;;;24.24;96.38;96868.75;18444476;32;20452;-62
2022/09/14 11:05:55;;;;;;;3.45;2.30;;;;;;;24.47;98.66;96856.75;18498804;32;20063;-62
2022/09/14 11:16:26;;;;;;;7.30;2.40;;;;;;;24.44;98.85;96865.81;18498009;32;20065;-61
2022/09/14 11:26:42;;;;;;;4.62;1.62;;;;;;;24.36;97.57;96860.19;18497534;32;20049;-61
2022/09/14 11:36:55;;;;;;;1.98;0.93;;;;;;;24.44;93.00;96882.38;18497011;32;20358;-61
2022/09/14 11:47:07;;;;;;;2.50;1.92;;;;;;;24.32;86.27;96906.31;18495932;32;20135;-61
2022/09/14 11:57:17;;;;;;;5.87;1.77;;;;;;;24.77;86.16;96924.94;18357322;32;20069;-61
2022/09/14 12:07:42;;;;;;;4.15;1.77;;;;;;;24.53;79.96;96922.34;18357570;32;20133;-61
2022/09/14 12:17:48;;;;;;;2.25;1.65;;;;;;;24.30;83.62;96932.78;18357252;32;20458;-61
2022/09/14 12:27:53;;;;;;;4.35;1.70;;;;;;;23.99;84.88;96943.06;18419739;32;20053;-61
2022/09/14 12:37:59;;;;;;;2.25;1.70;;;;;;;23.66;86.30;96953.66;18429551;32;20067;-61
2022/09/14 12:48:04;;;;;;;5.12;1.95;;;;;;;23.33;86.59;96968.19;18429900;32;20049;-61
2022/09/14 12:58:40;;;;;;;3.12;1.30;;;;;;;22.88;89.84;96981.66;18461392;32;20387;-61
2022/09/14 13:09:11;;;;;;;2.10;1.37;;;;;;;22.55;95.60;96980.28;18492090;32;20145;-61
2022/09/14 13:19:33;;;;;;;3.10;1.67;;;;;;;22.34;100.00;96988.97;18504274;32;20076;-60
2022/09/14 13:29:37;;;;;;;2.90;1.30;;;;;;;22.21;100.00;96968.22;18303015;32;20512;-61
2022/09/14 13:39:50;;;;;;;3.22;1.73;;;;;;;22.04;100.00;96963.97;18289461;32;20084;-60
2022/09/14 13:49:57;;;;;;;2.65;1.35;;;;;;;21.92;100.00;96968.44;18301617;32;20074;-61
2022/09/14 14:00:17;;;;;;;2.25;1.30;;;;;;;21.81;100.00;96950.91;18453897;32;20334;-61
2022/09/14 14:10:27;;;;;;;1.70;0.85;;;;;;;21.96;100.00;96944.53;18501873;32;20072;-61
2022/09/14 14:20:35;;;;;;;2.17;1.10;;;;;;;22.33;100.00;96933.03;18299601;32;20088;-61
2022/09/14 14:30:40;;;;;;;2.12;1.10;;;;;;;22.25;100.00;96952.56;18235195;32;20474;-60
2022/09/14 14:40:45;;;;;;;2.95;1.08;;;;;;;21.81;100.00;96942.66;18234639;32;20095;-60
2022/09/14 14:50:49;;;;;;;4.65;1.00;;;;;;;21.36;100.00;96900.03;18263979;32;20158;-60
2022/09/14 15:00:54;;;;;;;2.45;1.02;;;;;;;21.20;100.00;96898.13;18471236;32;20053;-60
2022/09/14 15:10:57;;;;;;;3.05;1.40;;;;;;;21.45;100.00;96893.16;18498409;32;20065;-61
2022/09/14 15:21:00;;;;;;;1.55;0.77;;;;;;;21.52;100.00;96886.25;18497403;32;20065;-61
2022/09/14 15:31:04;;;;;;;3.00;1.10;;;;;;;21.43;100.00;96897.44;18463801;32;20346;-61
2022/09/14 15:41:11;;;;;;;5.75;1.23;;;;;;;21.35;100.00;96885.50;18482638;32;20048;-60
2022/09/14 15:51:16;;;;;;;1.48;0.75;;;;;;;21.28;100.00;96844.09;18345689;32;20138;-60
2022/09/14 16:01:19;;;;;;;1.62;0.80;;;;;;;21.09;100.00;96809.94;18357685;32;20079;-60
2022/09/14 16:11:21;;;;;;;2.45;0.90;;;;;;;20.89;100.00;96822.06;18357670;32;20109;-60
2022/09/14 16:21:26;;;;;;;1.37;0.70;;;;;;;20.72;100.00;96835.03;18342942;32;20437;-61
2022/09/14 16:31:32;;;;;;;2.15;0.90;;;;;;;20.56;100.00;96837.00;18437317;32;20053;-60
2022/09/14 16:41:36;;;;;;;1.10;0.90;;;;;;;20.29;100.00;96843.00;18442276;32;20372;-61
2022/09/14 16:51:39;;;;;;;2.03;0.70;;;;;;;20.14;100.00;96844.63;18441385;32;20045;-60
2022/09/14 17:01:44;;;;;;;0.80;0.62;;;;;;;20.01;100.00;96839.53;18487631;32;20376;-60
2022/09/14 17:11:52;;;;;;;2.00;0.80;;;;;;;19.87;100.00;96840.78;18304123;32;20091;-60
2022/09/14 17:21:55;;;;;;;1.00;0.85;;;;;;;19.75;100.00;96860.00;18290465;32;20137;-60
2022/09/14 17:31:58;;;;;;;2.17;1.13;;;;;;;19.61;100.00;96852.97;18315524;32;20101;-61
2022/09/14 17:42:01;;;;;;;2.30;1.23;;;;;;;19.50;100.00;96876.56;18275384;32;20054;-60
2022/09/14 17:52:03;;;;;;;3.03;1.10;;;;;;;19.40;100.00;96902.50;18301545;32;20074;-60
2022/09/14 18:02:08;;;;;;;3.45;1.35;;;;;;;19.35;100.00;96935.66;18301128;32;20061;-61
2022/09/14 18:12:14;;;;;;;5.47;1.55;;;;;;;19.28;100.00;96928.00;18384282;32;20102;-60
2022/09/14 18:22:17;;;;;;;4.05;1.15;;;;;;;19.20;100.00;96904.28;18436243;32;20053;-61
2022/09/14 18:32:20;;;;;;;2.53;1.20;;;;;;;19.03;100.00;96890.81;18436460;32;20128;-60
2022/09/14 18:42:22;;;;;;;4.13;1.30;;;;;;;18.79;100.00;96870.50;18434385;32;20052;-61
2022/09/14 18:52:25;;;;;;;4.53;1.20;;;;;;;18.53;100.00;96847.00;18434990;32;20083;-61
2022/09/14 19:02:27;;;;;;;5.25;1.52;;;;;;;18.25;100.00;96833.19;18433335;32;20053;-61
2022/09/14 19:12:30;;;;;;;5.78;1.58;;;;;;;18.02;100.00;96822.69;18419608;32;20135;-61
2022/09/14 19:22:33;;;;;;;2.43;1.00;;;;;;;17.85;100.00;96839.25;18432255;32;20106;-60
2022/09/14 19:32:37;;;;;;;1.48;0.85;;;;;;;17.55;100.00;96845.66;18431590;32;20109;-60
2022/09/14 19:42:40;;;;;;;1.35;0.77;;;;;;;17.42;100.00;96865.88;18432198;32;20101;-60
2022/09/14 19:52:43;;;;;;;1.20;0.70;;;;;;;17.36;100.00;96864.47;18432196;32;20084;-60
2022/09/14 20:02:45;;;;;;;1.40;0.73;;;;;;;17.30;100.00;96868.56;18482444;32;20057;-60
2022/09/14 20:12:48;;;;;;;1.67;0.63;;;;;;;17.22;100.00;96873.72;18491881;32;20380;-60
2022/09/14 20:22:51;;;;;;;1.87;0.50;;;;;;;17.13;100.00;96869.47;18293694;32;20066;-60
2022/09/14 20:32:54;;;;;;;1.37;0.55;;;;;;;17.01;100.00;96878.41;18293788;32;20134;-60
2022/09/14 20:42:57;;;;;;;3.33;0.65;;;;;;;16.91;100.00;96891.31;18280424;32;20077;-61
2022/09/14 20:53:01;;;;;;;3.97;0.50;;;;;;;16.88;100.00;96913.78;18323119;32;20045;-61
2022/09/14 21:03:04;;;;;;;0.47;0.37;;;;;;;16.87;100.00;96917.62;18493819;32;20049;-60
2022/09/14 21:13:07;;;;;;;2.07;0.70;;;;;;;16.82;100.00;96904.16;18494838;32;20097;-61
2022/09/14 21:23:09;;;;;;;1.10;0.40;;;;;;;16.83;100.00;96926.78;18491324;32;20406;-61
2022/09/14 21:33:12;;;;;;;0.80;0.57;;;;;;;16.80;100.00;96933.75;18490816;32;20437;-60
2022/09/14 21:43:14;;;;;;;0.70;0.50;;;;;;;16.69;100.00;96941.50;18503884;32;20045;-60
2022/09/14 21:53:17;;;;;;;2.75;0.85;;;;;;;16.69;100.00;96957.88;18503232;32;20087;-60
2022/09/14 22:03:19;;;;;;;2.85;0.82;;;;;;;16.59;100.00;96982.78;18502332;32;20432;-60
2022/09/14 22:13:22;;;;;;;0.52;0.50;;;;;;;16.59;100.00;97004.63;18487721;32;20068;-60
2022/09/14 22:23:24;;;;;;;2.03;0.82;;;;;;;16.56;100.00;97025.16;18501256;32;20490;-60
2022/09/14 22:33:27;;;;;;;0.88;0.50;;;;;;;16.56;100.00;97027.91;18500871;32;20053;-61
2022/09/14 22:43:32;;;;;;;3.63;0.80;;;;;;;16.54;100.00;97034.81;18500150;32;20167;-60
2022/09/14 22:53:35;;;;;;;2.08;0.70;;;;;;;16.56;100.00;97029.84;18478824;32;20064;-60
2022/09/14 23:03:37;;;;;;;0.70;0.57;;;;;;;16.54;100.00;97041.06;18498801;32;20086;-60
2022/09/14 23:13:41;;;;;;;1.55;0.55;;;;;;;16.54;100.00;97060.19;18360323;32;20069;-60
2022/09/14 23:23:43;;;;;;;;;;;;;;;16.58;100.00;97046.66;18360081;32;20069;-60
2022/09/14 23:33:59;;;;;;;2.33;0.73;;;;;;;16.59;100.00;97038.19;18359597;32;20337;-60
2022/09/14 23:44:02;;;;;;;2.12;0.88;;;;;;;16.54;100.00;97023.88;18453530;32;20058;-60
2022/09/14 23:54:05;;;;;;;3.00;0.70;;;;;;;16.53;100.00;97031.28;18358506;32;20065;-60
